Data for 01/02/2017

Time Sea-Level Adjusted Pressure Absolute Pressure Temperature Relative Humidity Dew Point   
(mb) (inHg) (mb) (inHg) (C) (F) (%) (C) (F)
00:05 1010 29.83 840 24.81 -14.9 5.2 79 -17.7 0.2
00:10 1011 29.85 840 24.81 -14.9 5.3 80 -17.6 0.2
00:15 1011 29.85 840 24.81 -15 5.1 81 -17.5 0.4
00:20 1010 29.83 840 24.81 -14.8 5.3 82 -17.3 0.9
00:25 1010 29.83 840 24.81 -14.8 5.3 81 -17.5 0.5
00:30 1010 29.83 840 24.81 -14.8 5.3 79 -17.8 0
00:35 1011 29.85 840 24.81 -14.7 5.6 76 -18 -0.4
00:40 1011 29.85 840 24.81 -14.5 5.9 74 -18.2 -0.8
00:45 1011 29.85 840 24.81 -14.5 6 70 -18.8 -1.8
00:50 1011 29.85 840 24.81 -14.5 5.9 71 -18.6 -1.5
00:55 1011 29.85 840 24.81 -14.6 5.8 72 -18.5 -1.3
01:00 1011 29.85 840 24.81 -14.6 5.7 73 -18.5 -1.2
01:05 1011 29.85 840 24.81 -14.7 5.6 73 -18.6 -1.4
01:10 1011 29.85 840 24.81 -14.7 5.6 72 -18.6 -1.6
01:15 1011 29.85 840 24.81 -14.7 5.5 72 -18.7 -1.7
01:20 1011 29.85 840 24.81 -14.8 5.3 72 -18.8 -1.9
01:25 1011 29.85 840 24.81 -14.9 5.1 72 -18.9 -2
01:30 1011 29.85 840 24.81 -15.1 4.9 74 -18.7 -1.7
01:35 1011 29.85 840 24.81 -15.4 4.4 75 -18.9 -2
01:40 1011 29.85 840 24.81 -15.8 3.6 76 -19.1 -2.4
01:45 1011 29.85 840 24.81 -15.8 3.5 76 -19.1 -2.4
01:50 1011 29.85 840 24.81 -16.1 3 78 -19.1 -2.4
01:55 1011 29.85 840 24.81 -16 3.1 77 -19.2 -2.5
02:00 1011 29.85 840 24.81 -16.3 2.7 78 -19.3 -2.8
02:05 1011 29.85 840 24.81 -16.4 2.6 77 -19.5 -3.1
02:10 1011 29.85 840 24.81 -16.5 2.3 77 -19.6 -3.3
02:15 1011 29.85 840 24.81 -16.5 2.2 79 -19.4 -2.9
02:20 1011 29.85 841 24.83 -16.5 2.4 78 -19.5 -3
02:25 1011 29.85 840 24.81 -16.6 2.1 78 -19.6 -3.4
02:30 1011 29.85 841 24.83 -16.7 1.9 79 -19.6 -3.3
02:35 1011 29.85 841 24.83 -16.5 2.4 77 -19.6 -3.2
02:40 1011 29.85 841 24.83 -16.4 2.4 77 -19.6 -3.3
02:45 1011 29.85 841 24.83 -16.4 2.4 75 -19.9 -3.9
02:50 1011 29.85 841 24.83 -16.3 2.6 75 -19.8 -3.7
02:55 1011 29.85 841 24.83 -16.4 2.4 75 -19.9 -3.8
03:00 1012 29.88 841 24.83 -16.4 2.5 76 -19.8 -3.6
03:05 1012 29.88 841 24.83 -16.5 2.3 74 -20.1 -4.2
03:10 1012 29.88 841 24.83 -16.4 2.5 72 -20.3 -4.6
03:15 1012 29.88 841 24.83 -16.4 2.6 71 -20.5 -4.9
03:20 1012 29.88 841 24.83 -16.2 2.8 70 -20.5 -4.8
03:25 1012 29.88 841 24.83 -16.2 2.9 70 -20.5 -4.9
03:30 1012 29.88 841 24.83 -16.3 2.7 70 -20.6 -5.1
03:35 1012 29.88 841 24.83 -16.6 2.1 71 -20.7 -5.3
03:40 1012 29.88 841 24.83 -16.7 1.9 71 -20.9 -5.6
03:45 1012 29.88 841 24.83 -16.6 2.1 70 -20.9 -5.7
03:50 1012 29.88 841 24.83 -16.4 2.5 69 -20.8 -5.5
03:55 1012 29.88 841 24.83 -16.3 2.6 69 -20.8 -5.4
04:00 1012 29.88 841 24.83 -16.3 2.6 69 -20.7 -5.3
04:05 1012 29.88 841 24.83 -16.4 2.4 69 -20.8 -5.5
04:10 1012 29.88 842 24.86 -16.6 2.1 70 -20.9 -5.6
04:15 1012 29.88 842 24.86 -16.7 2 70 -20.9 -5.7
04:20 1012 29.88 842 24.86 -16.6 2.1 70 -20.9 -5.6
04:25 1012 29.88 842 24.86 -16.6 2.1 70 -20.9 -5.6
04:30 1012 29.88 842 24.86 -16.7 2 70 -20.9 -5.6
04:35 1012 29.88 842 24.86 -16.8 1.8 71 -20.9 -5.6
04:40 1013 29.91 842 24.86 -16.9 1.7 71 -20.9 -5.6
04:45 1013 29.91 842 24.86 -17 1.3 72 -21 -5.8
04:50 1013 29.91 842 24.86 -17.1 1.2 72 -21 -5.8
04:55 1013 29.91 842 24.86 -17.2 1 72 -21.2 -6.1
05:00 1013 29.91 842 24.86 -17.6 0.3 72 -21.4 -6.6
05:05 1013 29.91 842 24.86 -17.7 0.1 72 -21.6 -6.9
05:10 1013 29.91 842 24.86 -17.7 0.2 72 -21.6 -6.9
05:15 1013 29.91 842 24.86 -17.7 0.2 71 -21.7 -7
05:20 1013 29.91 842 24.86 -17.9 -0.2 72 -21.8 -7.2
05:25 1013 29.91 842 24.86 -18 -0.5 72 -21.9 -7.5
05:30 1013 29.91 842 24.86 -18.1 -0.6 73 -21.9 -7.4
05:35 1013 29.91 842 24.86 -18.2 -0.8 74 -21.8 -7.3
05:40 1013 29.91 842 24.86 -18.3 -0.9 75 -21.7 -7
05:45 1013 29.91 842 24.86 -18.2 -0.7 76 -21.4 -6.5
05:50 1013 29.91 842 24.86 -18.2 -0.7 76 -21.4 -6.5
05:55 1013 29.91 842 24.86 -18.1 -0.7 78 -21 -5.9
06:00 1013 29.91 842 24.86 -17.9 -0.1 77 -20.9 -5.7
06:05 1013 29.91 842 24.86 -17.7 0.2 77 -20.8 -5.4
06:10 1013 29.91 842 24.86 -17.6 0.3 77 -20.7 -5.3
06:15 1013 29.91 842 24.86 -17.6 0.4 73 -21.4 -6.5
06:20 1013 29.91 842 24.86 -17.6 0.3 72 -21.4 -6.6
06:25 1013 29.91 842 24.86 -17.7 0.1 73 -21.4 -6.6
06:30 1013 29.91 842 24.86 -17.7 0.2 74 -21.2 -6.2
06:35 1013 29.91 842 24.86 -17.4 0.7 74 -21 -5.7
06:40 1013 29.91 842 24.86 -17.3 0.9 74 -20.8 -5.5
06:45 1013 29.91 842 24.86 -17.2 1 74 -20.7 -5.3
06:50 1013 29.91 842 24.86 -17.2 1 74 -20.8 -5.4
06:55 1013 29.91 843 24.89 -17.3 0.8 74 -20.9 -5.7
07:00 1013 29.91 843 24.89 -17.4 0.8 74 -21 -5.8
07:05 1013 29.91 843 24.89 -17.4 0.7 73 -21.2 -6.1
07:10 1013 29.91 843 24.89 -17.5 0.6 73 -21.3 -6.3
07:15 1014 29.94 843 24.89 -17.6 0.4 73 -21.4 -6.5
07:20 1014 29.94 843 24.89 -17.6 0.3 72 -21.5 -6.7
07:25 1014 29.94 843 24.89 -17.7 0.2 72 -21.5 -6.8
07:30 1014 29.94 843 24.89 -17.7 0.1 72 -21.6 -6.9
07:35 1014 29.94 843 24.89 -17.7 0.1 72 -21.7 -7
07:40 1014 29.94 843 24.89 -17.8 0 72 -21.7 -7.1
07:45 1014 29.94 843 24.89 -17.9 -0.1 72 -21.7 -7.1
07:50 1014 29.94 843 24.89 -18 -0.3 72 -21.8 -7.3
07:55 1014 29.94 843 24.89 -18.1 -0.5 72 -21.9 -7.4
08:00 1014 29.94 843 24.89 -18.1 -0.6 73 -21.9 -7.4
08:05 1014 29.94 843 24.89 -18 -0.4 72 -21.8 -7.3
08:10 1014 29.94 843 24.89 -18 -0.3 72 -21.8 -7.3
08:15 1014 29.94 843 24.89 -18 -0.4 72 -21.9 -7.3
08:20 1014 29.94 843 24.89 -18 -0.4 72 -21.9 -7.5
08:25 1014 29.94 843 24.89 -18.1 -0.5 72 -22 -7.5
08:30 1014 29.94 843 24.89 -18.1 -0.5 71 -22 -7.7
08:35 1014 29.94 843 24.89 -17.9 -0.2 70 -22.1 -7.7
08:40 1014 29.94 843 24.89 -17.8 -0 70 -22 -7.6
08:45 1014 29.94 843 24.89 -17.7 0.1 69 -22 -7.7
08:50 1014 29.94 843 24.89 -17.7 0.2 70 -22 -7.5
08:55 1014 29.94 843 24.89 -17.6 0.3 69 -22 -7.6
09:00 1014 29.94 843 24.89 -17.6 0.3 70 -21.9 -7.5
09:05 1014 29.94 844 24.92 -17.6 0.3 70 -21.9 -7.4
09:10 1015 29.97 844 24.92 -17.7 0.2 70 -21.8 -7.3
09:15 1015 29.97 844 24.92 -17.7 0.1 70 -21.9 -7.3
09:20 1014 29.94 844 24.92 -17.7 0.1 70 -21.9 -7.3
09:25 1014 29.94 844 24.92 -17.7 0.2 70 -21.9 -7.4
09:30 1015 29.97 844 24.92 -17.7 0.2 71 -21.8 -7.2
09:35 1015 29.97 844 24.92 -17.7 0.2 71 -21.8 -7.2
09:40 1015 29.97 844 24.92 -17.7 0.2 71 -21.7 -7.1
09:45 1015 29.97 844 24.92 -17.7 0.2 73 -21.4 -6.5
09:50 1015 29.97 844 24.92 -17.8 0.1 74 -21.3 -6.3
09:55 1015 29.97 844 24.92 -17.8 -0 74 -21.3 -6.3
10:00 1015 29.97 844 24.92 -17.7 0.1 72 -21.6 -6.8
10:05 1015 29.97 844 24.92 -17.7 0.1 73 -21.5 -6.8
10:10 1015 29.97 844 24.92 -17.7 0.2 71 -21.7 -7.1
10:15 1015 29.97 844 24.92 -17.7 0.2 71 -21.8 -7.2
10:20 1015 29.97 844 24.92 -17.7 0.2 70 -21.9 -7.5
10:25 1015 29.97 844 24.92 -17.6 0.4 69 -22 -7.6
10:30 1015 29.97 844 24.92 -17.6 0.4 68 -22.2 -7.9
10:35 1015 29.97 844 24.92 -17.6 0.4 67 -22.3 -8.1
10:40 1015 29.97 844 24.92 -17.6 0.4 66 -22.5 -8.6
10:45 1015 29.97 844 24.92 -17.5 0.5 65 -22.6 -8.6
10:50 1015 29.97 844 24.92 -17.4 0.7 66 -22.4 -8.3
10:55 1015 29.97 844 24.92 -17.4 0.6 66 -22.3 -8.2
11:00 1015 29.97 844 24.92 -17.4 0.7 66 -22.3 -8.2
11:05 1015 29.97 844 24.92 -17.4 0.7 65 -22.4 -8.4
11:10 1015 29.97 844 24.92 -17.4 0.8 65 -22.5 -8.4
11:15 1015 29.97 844 24.92 -17.3 0.9 66 -22.2 -7.9
11:20 1015 29.97 844 24.92 -17.1 1.3 65 -22.2 -8
11:25 1015 29.97 844 24.92 -17 1.4 66 -22 -7.6
11:30 1015 29.97 844 24.92 -17 1.3 66 -22 -7.6
11:35 1015 29.97 845 24.95 -17 1.4 66 -22 -7.6
11:40 1015 29.97 844 24.92 -17.2 1 66 -22.2 -7.9
11:45 1015 29.97 844 24.92 -17.3 0.9 67 -22.1 -7.8
11:50 1015 29.97 845 24.95 -17.2 1 68 -21.9 -7.4
11:55 1015 29.97 845 24.95 -17.1 1.2 70 -21.3 -6.3
12:00 1016 30 845 24.95 -17 1.3 70 -21.3 -6.3
12:05 1016 30 845 24.95 -17 1.4 71 -21.1 -6
12:10 1016 30 845 24.95 -17 1.4 71 -21.1 -5.9
12:15 1016 30 845 24.95 -17.1 1.2 71 -21.2 -6.1
12:20 1016 30 845 24.95 -17.1 1.3 72 -21.1 -5.9
12:25 1016 30 845 24.95 -16.8 1.7 71 -21 -5.8
12:30 1016 30 845 24.95 -16.9 1.6 70 -21.1 -6
12:35 1016 30 845 24.95 -16.7 1.9 71 -20.8 -5.5
12:40 1016 30 845 24.95 -17 1.3 70 -21.2 -6.2
12:45 1016 30 845 24.95 -16.9 1.6 70 -21.1 -5.9
12:50 1016 30 845 24.95 -17.1 1.2 72 -21.1 -5.9
12:55 1016 30 845 24.95 -17 1.4 72 -21 -5.7
13:00 1016 30 845 24.95 -16.7 1.9 70 -21 -5.8
13:05 1016 30 845 24.95 -16.9 1.6 73 -20.7 -5.2
13:10 1016 30 845 24.95 -16.7 1.9 72 -20.7 -5.3
13:15 1016 30 845 24.95 -16.4 2.4 71 -20.5 -4.9
13:20 1016 30 845 24.95 -16.4 2.5 71 -20.4 -4.7
13:25 1016 30 845 24.95 -16.6 2.1 73 -20.4 -4.8
13:30 1016 30 845 24.95 -16.4 2.4 72 -20.4 -4.8
13:35 1016 30 845 24.95 -16.5 2.3 72 -20.5 -4.9
13:40 1016 30 845 24.95 -16.6 2.1 73 -20.4 -4.7
13:45 1016 30 845 24.95 -16.6 2.2 72 -20.4 -4.8
13:50 1016 30 845 24.95 -16.4 2.4 73 -20.3 -4.5
13:55 1016 30 845 24.95 -16.3 2.6 72 -20.2 -4.4
14:00 1016 30 845 24.95 -16.2 2.9 72 -20.2 -4.3
14:05 1016 30 845 24.95 -16.6 2.2 74 -20.2 -4.4
14:10 1016 30 845 24.95 -16.3 2.6 72 -20.3 -4.6
14:15 1016 30 845 24.95 -16.3 2.8 73 -20 -4.1
14:20 1016 30 845 24.95 -16.2 2.9 70 -20.4 -4.7
14:25 1016 30 845 24.95 -16.9 1.7 74 -20.4 -4.7
14:30 1016 30 845 24.95 -16.6 2.1 74 -20.3 -4.5
14:35 1016 30 845 24.95 -17 1.5 74 -20.5 -4.9
14:40 1016 30 845 24.95 -17.1 1.2 76 -20.4 -4.7
14:45 1016 30 845 24.95 -16.5 2.3 74 -20.1 -4.1
14:50 1016 30 845 24.95 -16.6 2.2 73 -20.3 -4.6
14:55 1016 30 845 24.95 -16.5 2.3 75 -20 -3.9
15:00 1016 30 845 24.95 -15.8 3.6 72 -19.7 -3.5
15:05 1016 30 845 24.95 -15.9 3.5 71 -20.1 -4.1
15:10 1016 30 845 24.95 -16.1 3.1 73 -19.9 -3.8
15:15 1016 30 845 24.95 -15.7 3.8 71 -19.7 -3.5
15:20 1016 30 845 24.95 -15.7 3.8 71 -19.8 -3.6
15:25 1016 30 846 24.98 -16.1 3 73 -20 -3.9
15:30 1016 30 846 24.98 -16.6 2.2 75 -20.1 -4.1
15:35 1016 30 846 24.98 -16.4 2.5 74 -20 -4
15:40 1016 30 846 24.98 -16.4 2.4 72 -20.3 -4.6
15:45 1016 30 846 24.98 -16.6 2.2 74 -20.2 -4.4
15:50 1017 30.03 846 24.98 -16.4 2.6 75 -19.9 -3.8
15:55 1017 30.03 846 24.98 -16 3.2 72 -19.9 -3.9
16:00 1017 30.03 846 24.98 -16.2 2.8 74 -19.8 -3.6
16:05 1017 30.03 846 24.98 -16 3.3 73 -19.7 -3.5
16:10 1017 30.03 846 24.98 -15.7 3.7 73 -19.6 -3.2
16:15 1017 30.03 846 24.98 -15.6 3.8 71 -19.7 -3.5
16:20 1017 30.03 846 24.98 -15.9 3.4 74 -19.6 -3.2
16:25 1017 30.03 846 24.98 -16.1 3 72 -20.1 -4.2
16:30 1017 30.03 846 24.98 -16.2 2.9 73 -19.9 -3.8
16:35 1017 30.03 846 24.98 -16.3 2.7 73 -20.1 -4.2
16:40 1017 30.03 846 24.98 -16.5 2.2 73 -20.4 -4.7
16:45 1017 30.03 846 24.98 -16.4 2.5 72 -20.4 -4.7
16:50 1017 30.03 846 24.98 -16.7 1.9 72 -20.7 -5.3
16:55 1017 30.03 846 24.98 -17.1 1.2 74 -20.7 -5.3
17:00 1017 30.03 846 24.98 -17.3 0.9 74 -20.9 -5.6
17:05 1017 30.03 847 25.01 -17.2 1 75 -20.7 -5.3
17:10 1017 30.03 847 25.01 -17.3 0.9 72 -21.2 -6.2
17:15 1018 30.06 847 25.01 -17.3 0.9 69 -21.6 -7
17:20 1018 30.06 847 25.01 -17.3 0.8 71 -21.4 -6.5
17:25 1018 30.06 847 25.01 -17.4 0.7 71 -21.5 -6.8
17:30 1018 30.06 847 25.01 -17.4 0.7 68 -21.9 -7.5
17:35 1018 30.06 847 25.01 -17.4 0.8 71 -21.5 -6.6
17:40 1018 30.06 847 25.01 -17.4 0.6 72 -21.3 -6.4
17:45 1018 30.06 847 25.01 -17.5 0.5 73 -21.3 -6.3
17:50 1018 30.06 847 25.01 -17.5 0.5 72 -21.4 -6.5
17:55 1018 30.06 847 25.01 -17.5 0.4 75 -20.9 -5.7
18:00 1018 30.06 847 25.01 -17.6 0.4 71 -21.7 -7
18:05 1018 30.06 847 25.01 -17.6 0.3 71 -21.6 -6.9
18:10 1018 30.06 847 25.01 -17.7 0.2 71 -21.7 -7.1
18:15 1018 30.06 847 25.01 -17.7 0.2 71 -21.7 -7.1
18:20 1018 30.06 847 25.01 -17.7 0.1 71 -21.8 -7.3
18:25 1018 30.06 847 25.01 -17.8 0 69 -22.2 -7.9
18:30 1018 30.06 847 25.01 -17.7 0.1 68 -22.4 -8.3
18:35 1018 30.06 847 25.01 -17.7 0.1 68 -22.3 -8.1
18:40 1018 30.06 847 25.01 -17.8 0.1 67 -22.5 -8.4
18:45 1018 30.06 848 25.04 -17.8 0 67 -22.4 -8.4
18:50 1018 30.06 848 25.04 -17.8 -0 67 -22.5 -8.6
18:55 1018 30.06 848 25.04 -17.7 0.1 67 -22.5 -8.5
19:00 1018 30.06 848 25.04 -17.8 0 67 -22.5 -8.5
19:05 1018 30.06 848 25.04 -17.8 -0 68 -22.4 -8.3
19:10 1018 30.06 848 25.04 -17.8 -0.1 67 -22.5 -8.4
19:15 1019 30.09 848 25.04 -17.8 -0.1 67 -22.5 -8.6
19:20 1019 30.09 848 25.04 -17.8 -0.1 66 -22.7 -8.8
19:25 1019 30.09 848 25.04 -17.8 -0 66 -22.7 -8.8
19:30 1019 30.09 848 25.04 -17.8 -0.1 66 -22.7 -8.9
19:35 1019 30.09 848 25.04 -17.8 -0.1 66 -22.8 -9.1
19:40 1019 30.09 848 25.04 -17.9 -0.1 65 -22.9 -9.2
19:45 1019 30.09 848 25.04 -17.9 -0.2 66 -22.8 -9.1
19:50 1019 30.09 848 25.04 -18 -0.3 66 -22.8 -9.1
19:55 1019 30.09 848 25.04 -18 -0.3 67 -22.8 -9
20:00 1019 30.09 848 25.04 -18 -0.4 67 -22.8 -9
20:05 1019 30.09 848 25.04 -18.1 -0.5 67 -22.8 -9
20:10 1019 30.09 848 25.04 -18.1 -0.6 67 -22.8 -9.1
20:15 1019 30.09 848 25.04 -18.1 -0.6 67 -22.9 -9.2
20:20 1019 30.09 848 25.04 -18.2 -0.7 67 -22.9 -9.2
20:25 1019 30.09 848 25.04 -18.2 -0.8 67 -23 -9.3
20:30 1019 30.09 848 25.04 -18.3 -0.9 66 -23.1 -9.6
20:35 1019 30.09 849 25.07 -18.3 -0.9 66 -23.2 -9.8
20:40 1019 30.09 849 25.07 -18.3 -0.9 66 -23.2 -9.7
20:45 1019 30.09 849 25.07 -18.3 -1 66 -23.3 -9.9
20:50 1019 30.09 849 25.07 -18.3 -1 66 -23.3 -9.9
20:55 1019 30.09 849 25.07 -18.4 -1.1 66 -23.3 -9.9
21:00 1019 30.09 849 25.07 -18.5 -1.2 66 -23.3 -10
21:05 1019 30.09 849 25.07 -18.5 -1.2 66 -23.4 -10
21:10 1019 30.09 849 25.07 -18.5 -1.3 66 -23.3 -9.9
21:15 1019 30.09 849 25.07 -18.6 -1.4 67 -23.3 -9.9
21:20 1019 30.09 849 25.07 -18.6 -1.5 67 -23.3 -10
21:25 1019 30.09 849 25.07 -18.6 -1.5 67 -23.3 -10
21:30 1019 30.09 849 25.07 -18.6 -1.5 67 -23.3 -10
21:35 1019 30.09 849 25.07 -18.6 -1.5 67 -23.3 -9.9
21:40 1019 30.09 849 25.07 -18.6 -1.5 67 -23.3 -10
21:45 1020 30.12 849 25.07 -18.7 -1.6 67 -23.4 -10
21:50 1020 30.12 849 25.07 -18.7 -1.7 67 -23.4 -10
21:55 1020 30.12 849 25.07 -18.8 -1.8 68 -23.3 -9.9
22:00 1020 30.12 849 25.07 -18.8 -1.8 68 -23.4 -10.1
22:05 1020 30.12 849 25.07 -18.7 -1.7 68 -23.3 -10
22:10 1020 30.12 849 25.07 -18.8 -1.8 68 -23.3 -10
22:15 1020 30.12 849 25.07 -18.8 -1.9 68 -23.3 -10
22:20 1020 30.12 849 25.07 -18.8 -1.8 68 -23.3 -9.9
22:25 1020 30.12 849 25.07 -18.9 -2 69 -23.3 -9.9
22:30 1020 30.12 849 25.07 -18.9 -2.1 69 -23.3 -9.9
22:35 1020 30.12 849 25.07 -19 -2.1 69 -23.3 -9.9
22:40 1020 30.12 849 25.07 -19 -2.1 69 -23.2 -9.8
22:45 1020 30.12 849 25.07 -19 -2.2 70 -23.2 -9.8
22:50 1020 30.12 849 25.07 -19.1 -2.3 70 -23.3 -9.9
22:55 1020 30.12 849 25.07 -19.1 -2.4 70 -23.3 -10
23:00 1020 30.12 849 25.07 -19.1 -2.3 70 -23.3 -9.9
23:05 1020 30.12 849 25.07 -19.1 -2.3 70 -23.3 -9.9
23:10 1020 30.12 849 25.07 -19.1 -2.3 70 -23.3 -10
23:15 1020 30.12 849 25.07 -19 -2.2 70 -23.3 -9.9
23:20 1020 30.12 849 25.07 -19 -2.2 69 -23.3 -9.9
23:25 1020 30.12 849 25.07 -19 -2.1 69 -23.3 -9.9
23:30 1020 30.12 849 25.07 -19 -2.1 70 -23.2 -9.8
23:35 1020 30.12 849 25.07 -19 -2.2 70 -23.2 -9.8
23:40 1020 30.12 849 25.07 -19 -2.3 70 -23.3 -9.9
23:45 1020 30.12 849 25.07 -19.1 -2.3 70 -23.3 -10
23:50 1020 30.12 849 25.07 -19.1 -2.4 69 -23.4 -10.1
23:55 1020 30.12 849 25.07 -19.1 -2.3 69 -23.3 -10
24:00 1020 30.12 849 25.07 -19.1 -2.3 69 -23.4 -10.1